sensor_id;sensor_type;location;lat;lon;timestamp;P1;durP1;ratioP1;P2;durP2;ratioP2
54452;SDS011;40363;52.270;10.546;2022-10-31T00:01:56;7.70;;;3.80;;
54452;SDS011;40363;52.270;10.546;2022-10-31T00:04:23;7.68;;;3.95;;
54452;SDS011;40363;52.270;10.546;2022-10-31T00:06:49;7.03;;;3.67;;
54452;SDS011;40363;52.270;10.546;2022-10-31T00:09:16;12.90;;;4.57;;
54452;SDS011;40363;52.270;10.546;2022-10-31T00:11:44;7.97;;;4.13;;
54452;SDS011;40363;52.270;10.546;2022-10-31T00:14:10;12.23;;;3.83;;
54452;SDS011;40363;52.270;10.546;2022-10-31T00:16:37;14.25;;;4.28;;
54452;SDS011;40363;52.270;10.546;2022-10-31T00:19:05;9.48;;;3.75;;
54452;SDS011;40363;52.270;10.546;2022-10-31T00:21:32;8.27;;;3.88;;
54452;SDS011;40363;52.270;10.546;2022-10-31T00:24:00;6.72;;;3.30;;
54452;SDS011;40363;52.270;10.546;2022-10-31T00:26:27;7.78;;;3.88;;
54452;SDS011;40363;52.270;10.546;2022-10-31T00:28:55;7.97;;;4.13;;
54452;SDS011;40363;52.270;10.546;2022-10-31T00:31:23;7.50;;;3.88;;
54452;SDS011;40363;52.270;10.546;2022-10-31T00:33:49;8.07;;;3.85;;
54452;SDS011;40363;52.270;10.546;2022-10-31T00:36:16;16.63;;;5.80;;
54452;SDS011;40363;52.270;10.546;2022-10-31T00:38:45;7.80;;;4.38;;
54452;SDS011;40363;52.270;10.546;2022-10-31T00:41:12;12.15;;;4.15;;
54452;SDS011;40363;52.270;10.546;2022-10-31T00:43:40;8.77;;;4.72;;
54452;SDS011;40363;52.270;10.546;2022-10-31T00:46:08;7.07;;;5.10;;
54452;SDS011;40363;52.270;10.546;2022-10-31T00:48:35;8.57;;;4.43;;
54452;SDS011;40363;52.270;10.546;2022-10-31T00:51:02;12.57;;;5.03;;
54452;SDS011;40363;52.270;10.546;2022-10-31T00:53:29;19.00;;;4.38;;
54452;SDS011;40363;52.270;10.546;2022-10-31T00:55:55;10.68;;;4.65;;
54452;SDS011;40363;52.270;10.546;2022-10-31T00:58:22;9.73;;;4.22;;
54452;SDS011;40363;52.270;10.546;2022-10-31T01:00:49;10.02;;;3.90;;
54452;SDS011;40363;52.270;10.546;2022-10-31T01:03:21;11.55;;;5.10;;
54452;SDS011;40363;52.270;10.546;2022-10-31T01:05:55;6.03;;;3.75;;
54452;SDS011;40363;52.270;10.546;2022-10-31T01:08:25;6.13;;;3.45;;
54452;SDS011;40363;52.270;10.546;2022-10-31T01:11:03;6.63;;;4.65;;
54452;SDS011;40363;52.270;10.546;2022-10-31T01:13:32;8.05;;;4.88;;
54452;SDS011;40363;52.270;10.546;2022-10-31T01:15:59;6.90;;;4.30;;
54452;SDS011;40363;52.270;10.546;2022-10-31T01:18:28;8.07;;;3.70;;
54452;SDS011;40363;52.270;10.546;2022-10-31T01:20:59;7.82;;;3.90;;
54452;SDS011;40363;52.270;10.546;2022-10-31T01:23:27;9.40;;;3.83;;
54452;SDS011;40363;52.270;10.546;2022-10-31T01:26:01;6.60;;;4.32;;
54452;SDS011;40363;52.270;10.546;2022-10-31T01:28:30;9.63;;;3.78;;
54452;SDS011;40363;52.270;10.546;2022-10-31T01:30:59;7.47;;;4.30;;
54452;SDS011;40363;52.270;10.546;2022-10-31T01:33:26;7.38;;;3.95;;
54452;SDS011;40363;52.270;10.546;2022-10-31T01:35:54;7.13;;;3.45;;
54452;SDS011;40363;52.270;10.546;2022-10-31T01:38:21;10.95;;;4.28;;
54452;SDS011;40363;52.270;10.546;2022-10-31T01:40:48;7.13;;;4.07;;
54452;SDS011;40363;52.270;10.546;2022-10-31T01:43:14;13.95;;;4.10;;
54452;SDS011;40363;52.270;10.546;2022-10-31T01:45:41;6.90;;;4.05;;
54452;SDS011;40363;52.270;10.546;2022-10-31T01:48:13;7.97;;;3.67;;
54452;SDS011;40363;52.270;10.546;2022-10-31T01:50:42;8.40;;;4.75;;
54452;SDS011;40363;52.270;10.546;2022-10-31T01:53:15;7.32;;;4.10;;
54452;SDS011;40363;52.270;10.546;2022-10-31T01:55:43;7.93;;;3.95;;
54452;SDS011;40363;52.270;10.546;2022-10-31T01:58:11;10.30;;;4.60;;
54452;SDS011;40363;52.270;10.546;2022-10-31T02:00:41;12.02;;;4.72;;
54452;SDS011;40363;52.270;10.546;2022-10-31T02:03:12;9.48;;;4.18;;
54452;SDS011;40363;52.270;10.546;2022-10-31T02:05:38;8.60;;;4.65;;
54452;SDS011;40363;52.270;10.546;2022-10-31T02:08:06;6.78;;;4.07;;
54452;SDS011;40363;52.270;10.546;2022-10-31T02:10:40;8.98;;;4.57;;
54452;SDS011;40363;52.270;10.546;2022-10-31T02:13:08;10.15;;;4.63;;
54452;SDS011;40363;52.270;10.546;2022-10-31T02:15:36;8.13;;;4.15;;
54452;SDS011;40363;52.270;10.546;2022-10-31T02:18:04;7.97;;;4.50;;
54452;SDS011;40363;52.270;10.546;2022-10-31T02:20:32;11.00;;;4.22;;
54452;SDS011;40363;52.270;10.546;2022-10-31T02:26:06;9.57;;;4.38;;
54452;SDS011;40363;52.270;10.546;2022-10-31T02:28:52;7.57;;;4.30;;
54452;SDS011;40363;52.270;10.546;2022-10-31T02:31:40;7.95;;;4.07;;
54452;SDS011;40363;52.270;10.546;2022-10-31T02:34:13;9.57;;;4.50;;
54452;SDS011;40363;52.270;10.546;2022-10-31T02:36:48;7.40;;;3.65;;
54452;SDS011;40363;52.270;10.546;2022-10-31T02:39:22;9.18;;;4.43;;
54452;SDS011;40363;52.270;10.546;2022-10-31T02:41:52;11.48;;;5.07;;
54452;SDS011;40363;52.270;10.546;2022-10-31T02:44:28;8.30;;;4.07;;
54452;SDS011;40363;52.270;10.546;2022-10-31T02:47:03;9.40;;;4.07;;
54452;SDS011;40363;52.270;10.546;2022-10-31T02:49:34;6.55;;;4.07;;
54452;SDS011;40363;52.270;10.546;2022-10-31T02:52:13;8.10;;;3.70;;
54452;SDS011;40363;52.270;10.546;2022-10-31T02:54:40;9.80;;;4.18;;
54452;SDS011;40363;52.270;10.546;2022-10-31T02:57:08;13.73;;;4.68;;
54452;SDS011;40363;52.270;10.546;2022-10-31T02:59:35;7.68;;;4.30;;
54452;SDS011;40363;52.270;10.546;2022-10-31T03:02:08;9.43;;;4.40;;
54452;SDS011;40363;52.270;10.546;2022-10-31T03:04:53;11.25;;;4.97;;
54452;SDS011;40363;52.270;10.546;2022-10-31T03:07:32;13.10;;;4.70;;
54452;SDS011;40363;52.270;10.546;2022-10-31T03:10:10;9.85;;;4.63;;
54452;SDS011;40363;52.270;10.546;2022-10-31T03:15:17;11.50;;;5.10;;
54452;SDS011;40363;52.270;10.546;2022-10-31T03:17:52;10.27;;;5.20;;
54452;SDS011;40363;52.270;10.546;2022-10-31T03:20:24;15.07;;;6.30;;
54452;SDS011;40363;52.270;10.546;2022-10-31T03:22:54;19.65;;;6.28;;
54452;SDS011;40363;52.270;10.546;2022-10-31T03:25:23;14.68;;;8.30;;
54452;SDS011;40363;52.270;10.546;2022-10-31T03:27:50;13.85;;;6.35;;
54452;SDS011;40363;52.270;10.546;2022-10-31T03:30:18;10.82;;;6.13;;
54452;SDS011;40363;52.270;10.546;2022-10-31T03:32:46;13.80;;;8.05;;
54452;SDS011;40363;52.270;10.546;2022-10-31T03:35:17;20.27;;;7.82;;
54452;SDS011;40363;52.270;10.546;2022-10-31T03:37:46;17.63;;;9.50;;
54452;SDS011;40363;52.270;10.546;2022-10-31T03:40:18;18.77;;;9.05;;
54452;SDS011;40363;52.270;10.546;2022-10-31T03:42:49;17.75;;;8.95;;
54452;SDS011;40363;52.270;10.546;2022-10-31T03:45:21;14.73;;;8.73;;
54452;SDS011;40363;52.270;10.546;2022-10-31T03:47:51;13.80;;;8.35;;
54452;SDS011;40363;52.270;10.546;2022-10-31T03:50:21;19.20;;;10.40;;
54452;SDS011;40363;52.270;10.546;2022-10-31T03:52:52;16.63;;;8.45;;
54452;SDS011;40363;52.270;10.546;2022-10-31T03:55:24;16.60;;;8.60;;
54452;SDS011;40363;52.270;10.546;2022-10-31T03:57:57;22.40;;;10.45;;
54452;SDS011;40363;52.270;10.546;2022-10-31T04:00:26;17.83;;;9.23;;
54452;SDS011;40363;52.270;10.546;2022-10-31T04:02:53;19.88;;;9.45;;
54452;SDS011;40363;52.270;10.546;2022-10-31T04:05:26;19.75;;;8.57;;
54452;SDS011;40363;52.270;10.546;2022-10-31T04:07:55;15.63;;;9.45;;
54452;SDS011;40363;52.270;10.546;2022-10-31T04:10:25;22.00;;;9.35;;
54452;SDS011;40363;52.270;10.546;2022-10-31T04:12:54;21.30;;;10.38;;
54452;SDS011;40363;52.270;10.546;2022-10-31T04:15:24;18.77;;;9.52;;
54452;SDS011;40363;52.270;10.546;2022-10-31T04:17:53;19.48;;;9.02;;
54452;SDS011;40363;52.270;10.546;2022-10-31T04:20:31;16.02;;;8.43;;
54452;SDS011;40363;52.270;10.546;2022-10-31T04:25:25;16.35;;;8.73;;
54452;SDS011;40363;52.270;10.546;2022-10-31T04:27:52;16.38;;;7.47;;
54452;SDS011;40363;52.270;10.546;2022-10-31T04:30:19;19.10;;;9.23;;
54452;SDS011;40363;52.270;10.546;2022-10-31T04:32:45;16.30;;;9.18;;
54452;SDS011;40363;52.270;10.546;2022-10-31T04:35:12;20.65;;;11.68;;
54452;SDS011;40363;52.270;10.546;2022-10-31T04:37:40;23.30;;;10.48;;
54452;SDS011;40363;52.270;10.546;2022-10-31T04:40:07;21.02;;;10.23;;
54452;SDS011;40363;52.270;10.546;2022-10-31T04:42:34;21.92;;;10.43;;
54452;SDS011;40363;52.270;10.546;2022-10-31T04:45:01;18.88;;;9.73;;
54452;SDS011;40363;52.270;10.546;2022-10-31T04:47:27;22.73;;;9.32;;
54452;SDS011;40363;52.270;10.546;2022-10-31T04:49:57;20.75;;;9.68;;
54452;SDS011;40363;52.270;10.546;2022-10-31T04:52:23;23.30;;;11.00;;
54452;SDS011;40363;52.270;10.546;2022-10-31T04:54:51;20.95;;;10.90;;
54452;SDS011;40363;52.270;10.546;2022-10-31T04:57:18;19.73;;;10.85;;
54452;SDS011;40363;52.270;10.546;2022-10-31T04:59:44;23.65;;;11.25;;
54452;SDS011;40363;52.270;10.546;2022-10-31T05:02:11;22.23;;;10.65;;
54452;SDS011;40363;52.270;10.546;2022-10-31T05:04:37;22.73;;;11.07;;
54452;SDS011;40363;52.270;10.546;2022-10-31T05:07:04;23.08;;;12.18;;
54452;SDS011;40363;52.270;10.546;2022-10-31T05:09:31;22.75;;;11.80;;
54452;SDS011;40363;52.270;10.546;2022-10-31T05:11:59;22.65;;;12.18;;
54452;SDS011;40363;52.270;10.546;2022-10-31T05:14:25;23.20;;;12.18;;
54452;SDS011;40363;52.270;10.546;2022-10-31T05:16:52;22.45;;;12.48;;
54452;SDS011;40363;52.270;10.546;2022-10-31T05:19:21;30.65;;;13.40;;
54452;SDS011;40363;52.270;10.546;2022-10-31T05:21:48;26.20;;;13.32;;
54452;SDS011;40363;52.270;10.546;2022-10-31T05:24:14;29.77;;;12.93;;
54452;SDS011;40363;52.270;10.546;2022-10-31T05:26:41;28.52;;;12.93;;
54452;SDS011;40363;52.270;10.546;2022-10-31T05:29:09;33.13;;;14.07;;
54452;SDS011;40363;52.270;10.546;2022-10-31T05:31:35;30.63;;;13.30;;
54452;SDS011;40363;52.270;10.546;2022-10-31T05:34:02;20.00;;;12.02;;
54452;SDS011;40363;52.270;10.546;2022-10-31T05:36:29;23.90;;;12.45;;
54452;SDS011;40363;52.270;10.546;2022-10-31T05:38:55;25.85;;;12.38;;
54452;SDS011;40363;52.270;10.546;2022-10-31T05:41:22;27.15;;;13.88;;
54452;SDS011;40363;52.270;10.546;2022-10-31T05:43:48;28.90;;;13.05;;
54452;SDS011;40363;52.270;10.546;2022-10-31T05:46:16;27.90;;;13.13;;
54452;SDS011;40363;52.270;10.546;2022-10-31T05:48:43;21.77;;;11.23;;
54452;SDS011;40363;52.270;10.546;2022-10-31T05:51:09;29.10;;;12.30;;
54452;SDS011;40363;52.270;10.546;2022-10-31T05:53:38;30.00;;;13.70;;
54452;SDS011;40363;52.270;10.546;2022-10-31T05:56:04;26.60;;;12.43;;
54452;SDS011;40363;52.270;10.546;2022-10-31T05:58:31;31.63;;;13.48;;
54452;SDS011;40363;52.270;10.546;2022-10-31T06:01:01;25.00;;;12.25;;
54452;SDS011;40363;52.270;10.546;2022-10-31T06:03:29;24.42;;;12.85;;
54452;SDS011;40363;52.270;10.546;2022-10-31T06:06:01;32.63;;;13.90;;
54452;SDS011;40363;52.270;10.546;2022-10-31T06:08:28;27.92;;;12.48;;
54452;SDS011;40363;52.270;10.546;2022-10-31T06:10:54;28.85;;;13.65;;
54452;SDS011;40363;52.270;10.546;2022-10-31T06:13:21;28.83;;;11.98;;
54452;SDS011;40363;52.270;10.546;2022-10-31T06:15:48;27.35;;;13.07;;
54452;SDS011;40363;52.270;10.546;2022-10-31T06:18:14;35.25;;;13.30;;
54452;SDS011;40363;52.270;10.546;2022-10-31T06:20:42;28.75;;;13.18;;
54452;SDS011;40363;52.270;10.546;2022-10-31T06:23:09;32.65;;;14.57;;
54452;SDS011;40363;52.270;10.546;2022-10-31T06:25:35;27.88;;;14.05;;
54452;SDS011;40363;52.270;10.546;2022-10-31T06:28:02;30.75;;;14.27;;
54452;SDS011;40363;52.270;10.546;2022-10-31T06:30:29;35.63;;;14.20;;
54452;SDS011;40363;52.270;10.546;2022-10-31T06:33:01;32.22;;;14.48;;
54452;SDS011;40363;52.270;10.546;2022-10-31T06:35:28;29.27;;;15.45;;
54452;SDS011;40363;52.270;10.546;2022-10-31T06:37:56;28.92;;;13.07;;
54452;SDS011;40363;52.270;10.546;2022-10-31T06:40:23;25.08;;;12.88;;
54452;SDS011;40363;52.270;10.546;2022-10-31T06:42:55;25.58;;;12.60;;
54452;SDS011;40363;52.270;10.546;2022-10-31T06:45:22;30.58;;;15.65;;
54452;SDS011;40363;52.270;10.546;2022-10-31T06:47:50;29.30;;;13.00;;
54452;SDS011;40363;52.270;10.546;2022-10-31T06:50:17;35.17;;;13.27;;
54452;SDS011;40363;52.270;10.546;2022-10-31T06:52:49;25.48;;;12.60;;
54452;SDS011;40363;52.270;10.546;2022-10-31T06:55:18;27.73;;;13.00;;
54452;SDS011;40363;52.270;10.546;2022-10-31T06:57:49;32.42;;;13.50;;
54452;SDS011;40363;52.270;10.546;2022-10-31T07:00:16;30.45;;;12.82;;
54452;SDS011;40363;52.270;10.546;2022-10-31T07:02:43;29.15;;;13.55;;
54452;SDS011;40363;52.270;10.546;2022-10-31T07:05:12;30.70;;;12.50;;
54452;SDS011;40363;52.270;10.546;2022-10-31T07:07:38;27.23;;;13.73;;
54452;SDS011;40363;52.270;10.546;2022-10-31T07:10:05;27.30;;;13.50;;
54452;SDS011;40363;52.270;10.546;2022-10-31T07:12:33;21.77;;;11.25;;
54452;SDS011;40363;52.270;10.546;2022-10-31T07:14:59;21.25;;;11.82;;
54452;SDS011;40363;52.270;10.546;2022-10-31T07:17:26;25.17;;;12.82;;
54452;SDS011;40363;52.270;10.546;2022-10-31T07:19:53;25.33;;;12.48;;
54452;SDS011;40363;52.270;10.546;2022-10-31T07:22:22;25.88;;;12.93;;
54452;SDS011;40363;52.270;10.546;2022-10-31T07:24:50;32.40;;;13.80;;
54452;SDS011;40363;52.270;10.546;2022-10-31T07:27:19;28.38;;;12.93;;
54452;SDS011;40363;52.270;10.546;2022-10-31T07:29:47;23.23;;;12.85;;
54452;SDS011;40363;52.270;10.546;2022-10-31T07:32:17;27.75;;;11.98;;
54452;SDS011;40363;52.270;10.546;2022-10-31T07:34:46;23.25;;;11.95;;
54452;SDS011;40363;52.270;10.546;2022-10-31T07:37:18;26.50;;;12.25;;
54452;SDS011;40363;52.270;10.546;2022-10-31T07:39:45;27.27;;;13.68;;
54452;SDS011;40363;52.270;10.546;2022-10-31T07:42:11;27.48;;;12.07;;
54452;SDS011;40363;52.270;10.546;2022-10-31T07:44:41;27.67;;;12.23;;
54452;SDS011;40363;52.270;10.546;2022-10-31T07:47:11;24.92;;;12.43;;
54452;SDS011;40363;52.270;10.546;2022-10-31T07:50:24;28.40;;;14.18;;
54452;SDS011;40363;52.270;10.546;2022-10-31T07:53:04;26.42;;;12.80;;
54452;SDS011;40363;52.270;10.546;2022-10-31T07:55:38;34.25;;;13.70;;
54452;SDS011;40363;52.270;10.546;2022-10-31T07:58:15;29.38;;;13.35;;
54452;SDS011;40363;52.270;10.546;2022-10-31T08:00:47;30.35;;;13.60;;
54452;SDS011;40363;52.270;10.546;2022-10-31T08:05:57;33.67;;;12.85;;
54452;SDS011;40363;52.270;10.546;2022-10-31T08:08:27;29.63;;;14.85;;
54452;SDS011;40363;52.270;10.546;2022-10-31T08:11:08;24.85;;;12.85;;
54452;SDS011;40363;52.270;10.546;2022-10-31T08:13:41;33.35;;;14.38;;
54452;SDS011;40363;52.270;10.546;2022-10-31T08:16:08;27.98;;;13.73;;
54452;SDS011;40363;52.270;10.546;2022-10-31T08:18:43;29.00;;;13.93;;
54452;SDS011;40363;52.270;10.546;2022-10-31T08:21:16;27.77;;;12.73;;
54452;SDS011;40363;52.270;10.546;2022-10-31T08:23:45;32.17;;;14.95;;
54452;SDS011;40363;52.270;10.546;2022-10-31T08:26:14;26.20;;;12.43;;
54452;SDS011;40363;52.270;10.546;2022-10-31T08:28:41;27.05;;;12.65;;
54452;SDS011;40363;52.270;10.546;2022-10-31T08:31:07;29.35;;;13.38;;
54452;SDS011;40363;52.270;10.546;2022-10-31T08:36:21;30.77;;;12.75;;
54452;SDS011;40363;52.270;10.546;2022-10-31T08:38:47;28.95;;;12.85;;
54452;SDS011;40363;52.270;10.546;2022-10-31T08:41:14;31.73;;;16.00;;
54452;SDS011;40363;52.270;10.546;2022-10-31T08:43:46;27.58;;;13.80;;
54452;SDS011;40363;52.270;10.546;2022-10-31T08:46:17;27.75;;;13.20;;
54452;SDS011;40363;52.270;10.546;2022-10-31T08:49:07;30.25;;;15.52;;
54452;SDS011;40363;52.270;10.546;2022-10-31T08:51:35;31.67;;;15.25;;
54452;SDS011;40363;52.270;10.546;2022-10-31T08:54:02;31.67;;;15.02;;
54452;SDS011;40363;52.270;10.546;2022-10-31T08:56:31;34.00;;;15.73;;
54452;SDS011;40363;52.270;10.546;2022-10-31T08:59:04;33.97;;;17.13;;
54452;SDS011;40363;52.270;10.546;2022-10-31T09:01:34;41.85;;;19.67;;
54452;SDS011;40363;52.270;10.546;2022-10-31T09:04:14;47.67;;;22.27;;
54452;SDS011;40363;52.270;10.546;2022-10-31T09:06:50;51.53;;;21.60;;
54452;SDS011;40363;52.270;10.546;2022-10-31T09:09:22;44.88;;;20.25;;
54452;SDS011;40363;52.270;10.546;2022-10-31T09:11:59;44.88;;;18.08;;
54452;SDS011;40363;52.270;10.546;2022-10-31T09:14:26;43.83;;;20.50;;
54452;SDS011;40363;52.270;10.546;2022-10-31T09:17:01;40.50;;;18.83;;
54452;SDS011;40363;52.270;10.546;2022-10-31T09:19:44;44.67;;;18.80;;
54452;SDS011;40363;52.270;10.546;2022-10-31T09:22:31;34.67;;;18.55;;
54452;SDS011;40363;52.270;10.546;2022-10-31T09:24:59;41.22;;;18.63;;
54452;SDS011;40363;52.270;10.546;2022-10-31T09:27:58;44.47;;;19.52;;
54452;SDS011;40363;52.270;10.546;2022-10-31T09:30:31;37.15;;;17.75;;
54452;SDS011;40363;52.270;10.546;2022-10-31T09:33:05;42.88;;;19.63;;
54452;SDS011;40363;52.270;10.546;2022-10-31T09:35:39;45.45;;;21.40;;
54452;SDS011;40363;52.270;10.546;2022-10-31T09:38:08;46.75;;;19.17;;
54452;SDS011;40363;52.270;10.546;2022-10-31T09:40:48;43.05;;;18.73;;
54452;SDS011;40363;52.270;10.546;2022-10-31T09:43:37;42.83;;;21.13;;
54452;SDS011;40363;52.270;10.546;2022-10-31T09:46:22;38.90;;;18.10;;
54452;SDS011;40363;52.270;10.546;2022-10-31T09:52:00;34.45;;;16.38;;
54452;SDS011;40363;52.270;10.546;2022-10-31T09:54:41;38.15;;;18.05;;
54452;SDS011;40363;52.270;10.546;2022-10-31T09:57:23;38.22;;;18.08;;
54452;SDS011;40363;52.270;10.546;2022-10-31T10:00:03;40.65;;;18.33;;
54452;SDS011;40363;52.270;10.546;2022-10-31T10:03:01;42.45;;;18.42;;
54452;SDS011;40363;52.270;10.546;2022-10-31T10:05:52;39.03;;;17.80;;
54452;SDS011;40363;52.270;10.546;2022-10-31T10:08:31;42.65;;;19.27;;
54452;SDS011;40363;52.270;10.546;2022-10-31T10:11:08;40.53;;;17.70;;
54452;SDS011;40363;52.270;10.546;2022-10-31T10:16:28;38.88;;;19.67;;
54452;SDS011;40363;52.270;10.546;2022-10-31T10:19:09;44.38;;;18.35;;
54452;SDS011;40363;52.270;10.546;2022-10-31T10:21:49;32.00;;;15.95;;
54452;SDS011;40363;52.270;10.546;2022-10-31T10:24:29;41.28;;;17.05;;
54452;SDS011;40363;52.270;10.546;2022-10-31T10:27:12;35.55;;;16.80;;
54452;SDS011;40363;52.270;10.546;2022-10-31T10:29:50;36.15;;;16.70;;
54452;SDS011;40363;52.270;10.546;2022-10-31T10:32:24;38.20;;;18.17;;
54452;SDS011;40363;52.270;10.546;2022-10-31T10:35:00;38.70;;;17.33;;
54452;SDS011;40363;52.270;10.546;2022-10-31T10:37:56;27.65;;;14.95;;
54452;SDS011;40363;52.270;10.546;2022-10-31T10:40:33;35.63;;;15.45;;
54452;SDS011;40363;52.270;10.546;2022-10-31T10:43:19;34.08;;;16.08;;
54452;SDS011;40363;52.270;10.546;2022-10-31T10:45:49;35.45;;;15.95;;
54452;SDS011;40363;52.270;10.546;2022-10-31T10:48:42;29.90;;;14.70;;
54452;SDS011;40363;52.270;10.546;2022-10-31T10:51:19;28.48;;;14.02;;
54452;SDS011;40363;52.270;10.546;2022-10-31T10:53:52;28.00;;;14.77;;
54452;SDS011;40363;52.270;10.546;2022-10-31T10:56:41;29.95;;;14.13;;
54452;SDS011;40363;52.270;10.546;2022-10-31T10:59:20;30.33;;;13.63;;
54452;SDS011;40363;52.270;10.546;2022-10-31T11:01:48;24.08;;;12.85;;
54452;SDS011;40363;52.270;10.546;2022-10-31T11:04:23;30.15;;;12.52;;
54452;SDS011;40363;52.270;10.546;2022-10-31T11:06:59;28.70;;;12.40;;
54452;SDS011;40363;52.270;10.546;2022-10-31T11:09:26;23.77;;;12.23;;
54452;SDS011;40363;52.270;10.546;2022-10-31T11:11:55;23.95;;;11.30;;
54452;SDS011;40363;52.270;10.546;2022-10-31T11:14:22;26.55;;;11.77;;
54452;SDS011;40363;52.270;10.546;2022-10-31T11:16:50;27.17;;;12.60;;
54452;SDS011;40363;52.270;10.546;2022-10-31T11:19:20;26.30;;;10.98;;
54452;SDS011;40363;52.270;10.546;2022-10-31T11:21:49;23.88;;;9.63;;
54452;SDS011;40363;52.270;10.546;2022-10-31T11:24:16;27.50;;;11.13;;
54452;SDS011;40363;52.270;10.546;2022-10-31T11:26:45;21.48;;;9.95;;
54452;SDS011;40363;52.270;10.546;2022-10-31T11:29:15;24.05;;;13.35;;
54452;SDS011;40363;52.270;10.546;2022-10-31T11:31:46;22.73;;;11.23;;
54452;SDS011;40363;52.270;10.546;2022-10-31T11:34:21;26.67;;;11.52;;
54452;SDS011;40363;52.270;10.546;2022-10-31T11:36:54;26.88;;;11.68;;
54452;SDS011;40363;52.270;10.546;2022-10-31T11:39:27;22.02;;;10.45;;
54452;SDS011;40363;52.270;10.546;2022-10-31T11:42:00;23.08;;;12.02;;
54452;SDS011;40363;52.270;10.546;2022-10-31T11:44:30;22.38;;;11.98;;
54452;SDS011;40363;52.270;10.546;2022-10-31T11:46:59;24.70;;;12.05;;
54452;SDS011;40363;52.270;10.546;2022-10-31T11:49:29;26.52;;;11.30;;
54452;SDS011;40363;52.270;10.546;2022-10-31T11:51:58;24.73;;;11.23;;
54452;SDS011;40363;52.270;10.546;2022-10-31T11:54:28;27.23;;;12.13;;
54452;SDS011;40363;52.270;10.546;2022-10-31T11:56:59;26.80;;;12.70;;
54452;SDS011;40363;52.270;10.546;2022-10-31T11:59:26;23.38;;;12.63;;
54452;SDS011;40363;52.270;10.546;2022-10-31T12:01:57;21.30;;;11.32;;
54452;SDS011;40363;52.270;10.546;2022-10-31T12:04:33;20.50;;;10.70;;
54452;SDS011;40363;52.270;10.546;2022-10-31T12:07:05;25.80;;;10.95;;
54452;SDS011;40363;52.270;10.546;2022-10-31T12:09:33;21.98;;;9.38;;
54452;SDS011;40363;52.270;10.546;2022-10-31T12:12:15;27.10;;;11.30;;
54452;SDS011;40363;52.270;10.546;2022-10-31T12:15:04;19.90;;;8.80;;
54452;SDS011;40363;52.270;10.546;2022-10-31T12:17:46;24.48;;;10.15;;
54452;SDS011;40363;52.270;10.546;2022-10-31T12:20:21;19.77;;;9.82;;
54452;SDS011;40363;52.270;10.546;2022-10-31T12:22:57;24.00;;;10.45;;
54452;SDS011;40363;52.270;10.546;2022-10-31T12:25:31;22.20;;;9.63;;
54452;SDS011;40363;52.270;10.546;2022-10-31T12:28:15;20.52;;;9.45;;
54452;SDS011;40363;52.270;10.546;2022-10-31T12:31:07;22.30;;;10.32;;
54452;SDS011;40363;52.270;10.546;2022-10-31T12:33:48;27.77;;;10.57;;
54452;SDS011;40363;52.270;10.546;2022-10-31T12:36:29;21.52;;;9.70;;
54452;SDS011;40363;52.270;10.546;2022-10-31T12:39:15;19.60;;;9.30;;
54452;SDS011;40363;52.270;10.546;2022-10-31T12:41:51;18.25;;;9.20;;
54452;SDS011;40363;52.270;10.546;2022-10-31T12:44:29;21.35;;;9.38;;
54452;SDS011;40363;52.270;10.546;2022-10-31T12:47:17;21.55;;;10.43;;
54452;SDS011;40363;52.270;10.546;2022-10-31T12:50:11;16.88;;;7.43;;
54452;SDS011;40363;52.270;10.546;2022-10-31T12:52:48;16.38;;;8.02;;
54452;SDS011;40363;52.270;10.546;2022-10-31T12:55:37;15.48;;;7.53;;
54452;SDS011;40363;52.270;10.546;2022-10-31T12:58:14;12.73;;;5.80;;
54452;SDS011;40363;52.270;10.546;2022-10-31T13:00:48;8.80;;;3.92;;
54452;SDS011;40363;52.270;10.546;2022-10-31T13:03:21;8.65;;;3.78;;
54452;SDS011;40363;52.270;10.546;2022-10-31T13:05:56;6.55;;;3.33;;
54452;SDS011;40363;52.270;10.546;2022-10-31T13:08:26;4.70;;;2.67;;
54452;SDS011;40363;52.270;10.546;2022-10-31T13:10:59;6.28;;;2.42;;
54452;SDS011;40363;52.270;10.546;2022-10-31T13:13:32;5.00;;;2.28;;
54452;SDS011;40363;52.270;10.546;2022-10-31T13:16:07;7.78;;;2.88;;
54452;SDS011;40363;52.270;10.546;2022-10-31T13:18:40;8.48;;;3.20;;
54452;SDS011;40363;52.270;10.546;2022-10-31T13:21:12;6.03;;;2.63;;
54452;SDS011;40363;52.270;10.546;2022-10-31T13:23:45;5.63;;;2.60;;
54452;SDS011;40363;52.270;10.546;2022-10-31T13:26:20;5.90;;;3.15;;
54452;SDS011;40363;52.270;10.546;2022-10-31T13:28:57;8.45;;;3.67;;
54452;SDS011;40363;52.270;10.546;2022-10-31T13:31:29;9.30;;;4.10;;
54452;SDS011;40363;52.270;10.546;2022-10-31T13:33:57;9.60;;;4.03;;
54452;SDS011;40363;52.270;10.546;2022-10-31T13:36:31;10.27;;;3.92;;
54452;SDS011;40363;52.270;10.546;2022-10-31T13:39:08;8.23;;;4.90;;
54452;SDS011;40363;52.270;10.546;2022-10-31T13:41:44;10.70;;;4.60;;
54452;SDS011;40363;52.270;10.546;2022-10-31T13:44:15;9.77;;;4.70;;
54452;SDS011;40363;52.270;10.546;2022-10-31T13:46:45;11.48;;;4.35;;
54452;SDS011;40363;52.270;10.546;2022-10-31T13:49:35;10.63;;;5.05;;
54452;SDS011;40363;52.270;10.546;2022-10-31T13:52:15;9.40;;;4.43;;
54452;SDS011;40363;52.270;10.546;2022-10-31T13:54:48;16.92;;;5.20;;
54452;SDS011;40363;52.270;10.546;2022-10-31T13:57:27;10.13;;;4.32;;
54452;SDS011;40363;52.270;10.546;2022-10-31T14:00:02;9.57;;;4.28;;
54452;SDS011;40363;52.270;10.546;2022-10-31T14:02:31;10.32;;;5.97;;
54452;SDS011;40363;52.270;10.546;2022-10-31T14:05:00;11.25;;;5.00;;
54452;SDS011;40363;52.270;10.546;2022-10-31T14:07:31;8.10;;;4.53;;
54452;SDS011;40363;52.270;10.546;2022-10-31T14:09:59;10.80;;;4.82;;
54452;SDS011;40363;52.270;10.546;2022-10-31T14:12:30;12.77;;;5.38;;
54452;SDS011;40363;52.270;10.546;2022-10-31T14:15:01;10.98;;;4.88;;
54452;SDS011;40363;52.270;10.546;2022-10-31T14:17:37;11.38;;;5.22;;
54452;SDS011;40363;52.270;10.546;2022-10-31T14:20:21;9.55;;;5.32;;
54452;SDS011;40363;52.270;10.546;2022-10-31T14:23:09;16.58;;;5.63;;
54452;SDS011;40363;52.270;10.546;2022-10-31T14:25:37;9.93;;;5.00;;
54452;SDS011;40363;52.270;10.546;2022-10-31T14:28:17;11.80;;;5.28;;
54452;SDS011;40363;52.270;10.546;2022-10-31T14:30:51;11.93;;;5.47;;
54452;SDS011;40363;52.270;10.546;2022-10-31T14:33:19;16.50;;;6.03;;
54452;SDS011;40363;52.270;10.546;2022-10-31T14:35:49;13.90;;;6.88;;
54452;SDS011;40363;52.270;10.546;2022-10-31T14:41:24;14.20;;;6.88;;
54452;SDS011;40363;52.270;10.546;2022-10-31T14:44:17;16.92;;;7.00;;
54452;SDS011;40363;52.270;10.546;2022-10-31T14:47:05;12.52;;;6.57;;
54452;SDS011;40363;52.270;10.546;2022-10-31T14:49:49;10.98;;;6.55;;
54452;SDS011;40363;52.270;10.546;2022-10-31T14:52:34;13.70;;;5.30;;
54452;SDS011;40363;52.270;10.546;2022-10-31T14:55:05;15.30;;;6.90;;
54452;SDS011;40363;52.270;10.546;2022-10-31T14:57:36;18.67;;;6.35;;
54452;SDS011;40363;52.270;10.546;2022-10-31T15:00:12;10.15;;;5.78;;
54452;SDS011;40363;52.270;10.546;2022-10-31T15:02:45;13.43;;;5.60;;
54452;SDS011;40363;52.270;10.546;2022-10-31T15:05:19;10.75;;;5.63;;
54452;SDS011;40363;52.270;10.546;2022-10-31T15:07:50;11.23;;;5.25;;
54452;SDS011;40363;52.270;10.546;2022-10-31T15:10:22;11.13;;;5.45;;